sensor_id;sensor_type;location;lat;lon;timestamp;pressure;altitude;pressure_sealevel;temperature;humidity
9091;BME280;4581;42.416;25.598;2023-04-29T00:01:03;67270.34;;;0.00;nan
9091;BME280;4581;42.416;25.598;2023-04-29T00:03:30;67264.25;;;0.00;nan
9091;BME280;4581;42.416;25.598;2023-04-29T00:06:00;67262.72;;;0.00;nan
9091;BME280;4581;42.416;25.598;2023-04-29T00:08:27;67262.72;;;0.00;nan
9091;BME280;4581;42.416;25.598;2023-04-29T00:10:54;67256.63;;;0.00;nan
9091;BME280;4581;42.416;25.598;2023-04-29T00:13:21;67258.16;;;0.00;nan
9091;BME280;4581;42.416;25.598;2023-04-29T00:15:48;67253.56;;;0.00;nan
9091;BME280;4581;42.416;25.598;2023-04-29T00:18:14;67252.03;;;0.00;nan
9091;BME280;4581;42.416;25.598;2023-04-29T00:20:41;67255.09;;;0.00;nan
9091;BME280;4581;42.416;25.598;2023-04-29T00:23:09;67249.00;;;0.00;nan
9091;BME280;4581;42.416;25.598;2023-04-29T00:25:36;67250.50;;;0.00;nan
9091;BME280;4581;42.416;25.598;2023-04-29T00:28:05;67249.00;;;0.00;nan
9091;BME280;4581;42.416;25.598;2023-04-29T00:30:31;67252.03;;;0.00;nan
9091;BME280;4581;42.416;25.598;2023-04-29T00:33:00;67249.00;;;0.00;nan
9091;BME280;4581;42.416;25.598;2023-04-29T00:35:27;67250.50;;;0.00;nan
9091;BME280;4581;42.416;25.598;2023-04-29T00:37:54;67249.00;;;0.00;nan
9091;BME280;4581;42.416;25.598;2023-04-29T00:40:20;67239.84;;;0.00;nan
9091;BME280;4581;42.416;25.598;2023-04-29T00:42:47;67242.88;;;0.00;nan
9091;BME280;4581;42.416;25.598;2023-04-29T00:45:14;67236.78;;;0.00;nan
9091;BME280;4581;42.416;25.598;2023-04-29T00:47:40;67250.50;;;0.00;nan
9091;BME280;4581;42.416;25.598;2023-04-29T00:50:08;67242.88;;;0.00;nan
9091;BME280;4581;42.416;25.598;2023-04-29T00:52:36;67252.03;;;0.00;nan
9091;BME280;4581;42.416;25.598;2023-04-29T00:55:05;67245.94;;;0.00;nan
9091;BME280;4581;42.416;25.598;2023-04-29T00:57:33;67250.50;;;0.00;nan
9091;BME280;4581;42.416;25.598;2023-04-29T01:00:00;67261.19;;;0.00;nan
9091;BME280;4581;42.416;25.598;2023-04-29T01:02:27;67261.19;;;0.00;nan
9091;BME280;4581;42.416;25.598;2023-04-29T01:04:54;67261.19;;;0.00;nan
9091;BME280;4581;42.416;25.598;2023-04-29T01:10:07;67253.56;;;0.00;nan
9091;BME280;4581;42.416;25.598;2023-04-29T01:15:11;67270.34;;;0.00;nan
9091;BME280;4581;42.416;25.598;2023-04-29T01:18:04;67264.25;;;0.00;nan
9091;BME280;4581;42.416;25.598;2023-04-29T01:20:36;67258.16;;;0.00;nan
9091;BME280;4581;42.416;25.598;2023-04-29T01:23:03;67265.78;;;0.00;nan
9091;BME280;4581;42.416;25.598;2023-04-29T01:25:30;67265.78;;;0.00;nan
9091;BME280;4581;42.416;25.598;2023-04-29T01:28:36;67274.94;;;0.00;nan
9091;BME280;4581;42.416;25.598;2023-04-29T01:31:10;67274.94;;;0.00;nan
9091;BME280;4581;42.416;25.598;2023-04-29T01:36:21;67282.56;;;0.00;nan
9091;BME280;4581;42.416;25.598;2023-04-29T01:39:11;67285.59;;;0.00;nan
9091;BME280;4581;42.416;25.598;2023-04-29T01:41:43;67276.44;;;0.00;nan
9091;BME280;4581;42.416;25.598;2023-04-29T01:44:19;67282.56;;;0.00;nan
9091;BME280;4581;42.416;25.598;2023-04-29T01:46:51;67279.50;;;0.00;nan
9091;BME280;4581;42.416;25.598;2023-04-29T01:49:28;67282.56;;;0.00;nan
9091;BME280;4581;42.416;25.598;2023-04-29T01:51:55;67291.72;;;0.00;nan
9091;BME280;4581;42.416;25.598;2023-04-29T01:54:22;67297.81;;;0.00;nan
9091;BME280;4581;42.416;25.598;2023-04-29T01:56:49;67306.97;;;0.00;nan
9091;BME280;4581;42.416;25.598;2023-04-29T01:59:16;67308.50;;;0.00;nan
9091;BME280;4581;42.416;25.598;2023-04-29T02:01:43;67313.06;;;0.00;nan
9091;BME280;4581;42.416;25.598;2023-04-29T02:04:09;67319.19;;;0.00;nan
9091;BME280;4581;42.416;25.598;2023-04-29T02:06:36;67322.22;;;0.00;nan
9091;BME280;4581;42.416;25.598;2023-04-29T02:09:03;67326.81;;;0.00;nan
9091;BME280;4581;42.416;25.598;2023-04-29T02:11:29;67322.22;;;0.00;nan
9091;BME280;4581;42.416;25.598;2023-04-29T02:13:56;67320.69;;;0.00;nan
9091;BME280;4581;42.416;25.598;2023-04-29T02:16:23;67320.69;;;0.00;nan
9091;BME280;4581;42.416;25.598;2023-04-29T02:18:50;67319.19;;;0.00;nan
9091;BME280;4581;42.416;25.598;2023-04-29T02:21:16;67322.22;;;0.00;nan
9091;BME280;4581;42.416;25.598;2023-04-29T02:23:43;67325.28;;;0.00;nan
9091;BME280;4581;42.416;25.598;2023-04-29T02:26:10;67322.22;;;0.00;nan
9091;BME280;4581;42.416;25.598;2023-04-29T02:28:37;67319.19;;;0.00;nan
9091;BME280;4581;42.416;25.598;2023-04-29T02:31:04;67320.69;;;0.00;nan
9091;BME280;4581;42.416;25.598;2023-04-29T02:33:31;67320.69;;;0.00;nan
9091;BME280;4581;42.416;25.598;2023-04-29T02:35:58;67323.75;;;0.00;nan
9091;BME280;4581;42.416;25.598;2023-04-29T02:38:25;67328.34;;;0.00;nan
9091;BME280;4581;42.416;25.598;2023-04-29T02:40:52;67323.75;;;0.00;nan
9091;BME280;4581;42.416;25.598;2023-04-29T02:43:18;67323.75;;;0.00;nan
9091;BME280;4581;42.416;25.598;2023-04-29T02:45:45;67328.34;;;0.00;nan
9091;BME280;4581;42.416;25.598;2023-04-29T02:48:12;67328.34;;;0.00;nan
9091;BME280;4581;42.416;25.598;2023-04-29T02:50:38;67332.91;;;0.00;nan
9091;BME280;4581;42.416;25.598;2023-04-29T02:53:05;67342.06;;;0.00;nan
9091;BME280;4581;42.416;25.598;2023-04-29T02:55:32;67345.13;;;0.00;nan
9091;BME280;4581;42.416;25.598;2023-04-29T02:57:59;67351.22;;;0.00;nan
9091;BME280;4581;42.416;25.598;2023-04-29T03:00:26;67352.75;;;0.00;nan
9091;BME280;4581;42.416;25.598;2023-04-29T03:02:52;67354.28;;;0.00;nan
9091;BME280;4581;42.416;25.598;2023-04-29T03:05:19;67349.69;;;0.00;nan
9091;BME280;4581;42.416;25.598;2023-04-29T03:07:46;67358.84;;;0.00;nan
9091;BME280;4581;42.416;25.598;2023-04-29T03:10:12;67358.84;;;0.00;nan
9091;BME280;4581;42.416;25.598;2023-04-29T03:12:39;67358.84;;;0.00;nan
9091;BME280;4581;42.416;25.598;2023-04-29T03:15:06;67358.84;;;0.00;nan
9091;BME280;4581;42.416;25.598;2023-04-29T03:17:33;67364.97;;;0.00;nan
9091;BME280;4581;42.416;25.598;2023-04-29T03:20:00;67368.00;;;0.00;nan
9091;BME280;4581;42.416;25.598;2023-04-29T03:22:27;67372.59;;;0.00;nan
9091;BME280;4581;42.416;25.598;2023-04-29T03:24:53;67366.47;;;0.00;nan
9091;BME280;4581;42.416;25.598;2023-04-29T03:27:20;67368.00;;;0.00;nan
9091;BME280;4581;42.416;25.598;2023-04-29T03:29:47;67369.53;;;0.00;nan
9091;BME280;4581;42.416;25.598;2023-04-29T03:32:14;67374.09;;;0.00;nan
9091;BME280;4581;42.416;25.598;2023-04-29T03:34:41;67364.97;;;0.00;nan
9091;BME280;4581;42.416;25.598;2023-04-29T03:37:08;67363.44;;;0.00;nan
9091;BME280;4581;42.416;25.598;2023-04-29T03:39:34;67368.00;;;0.00;nan
9091;BME280;4581;42.416;25.598;2023-04-29T03:42:01;67364.97;;;0.00;nan
9091;BME280;4581;42.416;25.598;2023-04-29T03:44:28;67364.97;;;0.00;nan
9091;BME280;4581;42.416;25.598;2023-04-29T03:46:55;67360.38;;;0.00;nan
9091;BME280;4581;42.416;25.598;2023-04-29T03:49:21;67368.00;;;0.00;nan
9091;BME280;4581;42.416;25.598;2023-04-29T03:51:49;67360.38;;;0.00;nan
9091;BME280;4581;42.416;25.598;2023-04-29T03:54:16;67352.75;;;0.00;nan
9091;BME280;4581;42.416;25.598;2023-04-29T03:56:42;67349.69;;;0.00;nan
9091;BME280;4581;42.416;25.598;2023-04-29T03:59:09;67340.53;;;0.00;nan
9091;BME280;4581;42.416;25.598;2023-04-29T04:01:36;67329.84;;;0.00;nan
9091;BME280;4581;42.416;25.598;2023-04-29T04:04:02;67325.28;;;0.00;nan
9091;BME280;4581;42.416;25.598;2023-04-29T04:06:29;67314.59;;;0.00;nan
9091;BME280;4581;42.416;25.598;2023-04-29T04:08:57;67308.50;;;0.00;nan
9091;BME280;4581;42.416;25.598;2023-04-29T04:11:23;67303.91;;;0.00;nan
9091;BME280;4581;42.416;25.598;2023-04-29T04:13:50;67294.75;;;0.00;nan
9091;BME280;4581;42.416;25.598;2023-04-29T04:16:17;67279.50;;;0.00;nan
9091;BME280;4581;42.416;25.598;2023-04-29T04:18:44;67274.94;;;0.00;nan
9091;BME280;4581;42.416;25.598;2023-04-29T04:21:11;67267.28;;;0.00;nan
9091;BME280;4581;42.416;25.598;2023-04-29T04:23:38;67256.63;;;0.00;nan
9091;BME280;4581;42.416;25.598;2023-04-29T04:26:06;67249.00;;;0.00;nan
9091;BME280;4581;42.416;25.598;2023-04-29T04:28:33;67233.72;;;0.00;nan
9091;BME280;4581;42.416;25.598;2023-04-29T04:31:00;67212.38;;;0.00;nan
9091;BME280;4581;42.416;25.598;2023-04-29T04:33:27;67197.09;;;0.00;nan
9091;BME280;4581;42.416;25.598;2023-04-29T04:35:53;67181.84;;;0.00;nan
9091;BME280;4581;42.416;25.598;2023-04-29T04:38:20;67160.47;;;0.00;nan
9091;BME280;4581;42.416;25.598;2023-04-29T04:40:48;67148.28;;;0.00;nan
9091;BME280;4581;42.416;25.598;2023-04-29T04:43:15;67131.50;;;0.00;nan
9091;BME280;4581;42.416;25.598;2023-04-29T04:45:42;67123.88;;;0.00;nan
9091;BME280;4581;42.416;25.598;2023-04-29T04:48:09;67111.66;;;0.00;nan
9091;BME280;4581;42.416;25.598;2023-04-29T04:50:36;67100.97;;;0.00;nan
9091;BME280;4581;42.416;25.598;2023-04-29T04:53:03;67082.66;;;0.00;nan
9091;BME280;4581;42.416;25.598;2023-04-29T04:55:30;67070.47;;;0.00;nan
9091;BME280;4581;42.416;25.598;2023-04-29T04:57:58;67044.53;;;0.00;nan
9091;BME280;4581;42.416;25.598;2023-04-29T05:00:25;67017.06;;;0.00;nan
9091;BME280;4581;42.416;25.598;2023-04-29T05:02:52;66998.75;;;0.00;nan
9091;BME280;4581;42.416;25.598;2023-04-29T05:05:19;66974.31;;;0.00;nan
9091;BME280;4581;42.416;25.598;2023-04-29T05:07:45;66954.50;;;0.00;nan
9091;BME280;4581;42.416;25.598;2023-04-29T05:10:12;66939.22;;;0.00;nan
9091;BME280;4581;42.416;25.598;2023-04-29T05:12:39;66946.88;;;0.00;nan
9091;BME280;4581;42.416;25.598;2023-04-29T05:15:06;66914.81;;;0.00;nan
9091;BME280;4581;42.416;25.598;2023-04-29T05:17:33;66888.88;;;0.00;nan
9091;BME280;4581;42.416;25.598;2023-04-29T05:20:01;66858.34;;;0.00;nan
9091;BME280;4581;42.416;25.598;2023-04-29T05:22:28;66830.91;;;0.00;nan
9091;BME280;4581;42.416;25.598;2023-04-29T05:24:55;66798.84;;;0.00;nan
9091;BME280;4581;42.416;25.598;2023-04-29T05:27:28;66765.28;;;0.00;nan
9091;BME280;4581;42.416;25.598;2023-04-29T05:29:55;66748.50;;;0.00;nan
9091;BME280;4581;42.416;25.598;2023-04-29T05:32:22;66721.03;;;0.00;nan
9091;BME280;4581;42.416;25.598;2023-04-29T05:34:49;66707.28;;;0.00;nan
9091;BME280;4581;42.416;25.598;2023-04-29T05:37:16;66696.63;;;0.00;nan
9091;BME280;4581;42.416;25.598;2023-04-29T05:39:43;66660.00;;;0.00;nan
9091;BME280;4581;42.416;25.598;2023-04-29T05:42:10;66605.06;;;0.00;nan
9091;BME280;4581;42.416;25.598;2023-04-29T05:44:37;66568.44;;;0.00;nan
9091;BME280;4581;42.416;25.598;2023-04-29T05:47:05;66534.88;;;0.00;nan
9091;BME280;4581;42.416;25.598;2023-04-29T05:49:31;66527.25;;;0.00;nan
9091;BME280;4581;42.416;25.598;2023-04-29T05:51:58;66493.66;;;0.00;nan
9091;BME280;4581;42.416;25.598;2023-04-29T05:54:29;66478.41;;;0.00;nan
9091;BME280;4581;42.416;25.598;2023-04-29T05:56:56;66489.09;;;0.00;nan
9091;BME280;4581;42.416;25.598;2023-04-29T05:59:23;66466.22;;;0.00;nan
9091;BME280;4581;42.416;25.598;2023-04-29T06:01:49;66475.38;;;0.00;nan
9091;BME280;4581;42.416;25.598;2023-04-29T06:04:16;66426.53;;;0.00;nan
9091;BME280;4581;42.416;25.598;2023-04-29T06:06:43;66423.47;;;0.00;nan
9091;BME280;4581;42.416;25.598;2023-04-29T06:09:10;66455.53;;;0.00;nan
9091;BME280;4581;42.416;25.598;2023-04-29T06:11:49;66495.19;;;0.00;nan
9091;BME280;4581;42.416;25.598;2023-04-29T06:14:16;66531.81;;;0.00;nan
9091;BME280;4581;42.416;25.598;2023-04-29T06:16:43;66537.91;;;0.00;nan
9091;BME280;4581;42.416;25.598;2023-04-29T06:19:10;66544.03;;;0.00;nan
9091;BME280;4581;42.416;25.598;2023-04-29T06:21:37;66528.78;;;0.00;nan
9091;BME280;4581;42.416;25.598;2023-04-29T06:24:04;66545.56;;;0.00;nan
9091;BME280;4581;42.416;25.598;2023-04-29T06:26:32;66513.50;;;0.00;nan
9091;BME280;4581;42.416;25.598;2023-04-29T06:28:58;66483.00;;;0.00;nan
9091;BME280;4581;42.416;25.598;2023-04-29T06:31:25;66499.78;;;0.00;nan
9091;BME280;4581;42.416;25.598;2023-04-29T06:33:52;66556.22;;;0.00;nan
9091;BME280;4581;42.416;25.598;2023-04-29T06:36:19;66527.25;;;0.00;nan
9091;BME280;4581;42.416;25.598;2023-04-29T06:38:45;66478.41;;;0.00;nan
9091;BME280;4581;42.416;25.598;2023-04-29T06:41:12;66428.06;;;0.00;nan
9091;BME280;4581;42.416;25.598;2023-04-29T06:43:39;66400.59;;;0.00;nan
9091;BME280;4581;42.416;25.598;2023-04-29T06:46:08;66383.81;;;0.00;nan
9091;BME280;4581;42.416;25.598;2023-04-29T06:48:36;66367.03;;;0.00;nan
9091;BME280;4581;42.416;25.598;2023-04-29T06:51:02;66345.66;;;0.00;nan
9091;BME280;4581;42.416;25.598;2023-04-29T06:53:29;66354.81;;;0.00;nan
9091;BME280;4581;42.416;25.598;2023-04-29T06:55:56;66347.19;;;0.00;nan
9091;BME280;4581;42.416;25.598;2023-04-29T06:58:23;66342.59;;;0.00;nan
9091;BME280;4581;42.416;25.598;2023-04-29T07:00:50;66362.44;;;0.00;nan
9091;BME280;4581;42.416;25.598;2023-04-29T07:03:17;66362.44;;;0.00;nan
9091;BME280;4581;42.416;25.598;2023-04-29T07:05:44;66319.72;;;0.00;nan
9091;BME280;4581;42.416;25.598;2023-04-29T07:08:12;66290.72;;;0.00;nan
9091;BME280;4581;42.416;25.598;2023-04-29T07:10:39;66299.88;;;0.00;nan
9091;BME280;4581;42.416;25.598;2023-04-29T07:13:07;66342.59;;;0.00;nan
9091;BME280;4581;42.416;25.598;2023-04-29T07:15:34;66357.88;;;0.00;nan
9091;BME280;4581;42.416;25.598;2023-04-29T07:18:05;66348.72;;;0.00;nan
9091;BME280;4581;42.416;25.598;2023-04-29T07:20:32;66289.19;;;0.00;nan
9091;BME280;4581;42.416;25.598;2023-04-29T07:23:01;66327.34;;;0.00;nan
9091;BME280;4581;42.416;25.598;2023-04-29T07:25:28;66299.88;;;0.00;nan
9091;BME280;4581;42.416;25.598;2023-04-29T07:27:55;66330.41;;;0.00;nan
9091;BME280;4581;42.416;25.598;2023-04-29T07:30:22;66287.69;;;0.00;nan
9091;BME280;4581;42.416;25.598;2023-04-29T07:32:49;66235.78;;;0.00;nan
9091;BME280;4581;42.416;25.598;2023-04-29T07:35:16;66248.00;;;0.00;nan
9091;BME280;4581;42.416;25.598;2023-04-29T07:37:43;66232.75;;;0.00;nan
9091;BME280;4581;42.416;25.598;2023-04-29T07:40:12;66205.28;;;0.00;nan
9091;BME280;4581;42.416;25.598;2023-04-29T07:42:38;66235.78;;;0.00;nan
9091;BME280;4581;42.416;25.598;2023-04-29T07:45:05;66252.59;;;0.00;nan
9091;BME280;4581;42.416;25.598;2023-04-29T07:47:32;66238.84;;;0.00;nan
9091;BME280;4581;42.416;25.598;2023-04-29T07:49:59;66194.59;;;0.00;nan
9091;BME280;4581;42.416;25.598;2023-04-29T07:52:26;66212.91;;;0.00;nan
9091;BME280;4581;42.416;25.598;2023-04-29T07:54:53;66180.88;;;0.00;nan
9091;BME280;4581;42.416;25.598;2023-04-29T07:57:22;66174.75;;;0.00;nan
9091;BME280;4581;42.416;25.598;2023-04-29T07:59:52;66182.38;;;0.00;nan
9091;BME280;4581;42.416;25.598;2023-04-29T08:02:19;66182.38;;;0.00;nan
9091;BME280;4581;42.416;25.598;2023-04-29T08:04:47;66188.50;;;0.00;nan
9091;BME280;4581;42.416;25.598;2023-04-29T08:07:14;66168.66;;;0.00;nan
9091;BME280;4581;42.416;25.598;2023-04-29T08:09:40;66147.28;;;0.00;nan
9091;BME280;4581;42.416;25.598;2023-04-29T08:12:07;66159.50;;;0.00;nan
9091;BME280;4581;42.416;25.598;2023-04-29T08:14:34;66190.03;;;0.00;nan
9091;BME280;4581;42.416;25.598;2023-04-29T08:17:01;66209.84;;;0.00;nan
9091;BME280;4581;42.416;25.598;2023-04-29T08:19:28;66147.28;;;0.00;nan
9091;BME280;4581;42.416;25.598;2023-04-29T08:21:55;66144.25;;;0.00;nan
9091;BME280;4581;42.416;25.598;2023-04-29T08:24:22;66159.50;;;0.00;nan
9091;BME280;4581;42.416;25.598;2023-04-29T08:26:48;66144.25;;;0.00;nan
9091;BME280;4581;42.416;25.598;2023-04-29T08:29:15;66171.72;;;0.00;nan
9091;BME280;4581;42.416;25.598;2023-04-29T08:31:42;66138.13;;;0.00;nan
9091;BME280;4581;42.416;25.598;2023-04-29T08:34:09;66122.88;;;0.00;nan
9091;BME280;4581;42.416;25.598;2023-04-29T08:36:35;66128.97;;;0.00;nan
9091;BME280;4581;42.416;25.598;2023-04-29T08:39:04;66150.34;;;0.00;nan
9091;BME280;4581;42.416;25.598;2023-04-29T08:41:31;66124.41;;;0.00;nan
9091;BME280;4581;42.416;25.598;2023-04-29T08:43:59;66144.25;;;0.00;nan
9091;BME280;4581;42.416;25.598;2023-04-29T08:46:26;66132.03;;;0.00;nan
9091;BME280;4581;42.416;25.598;2023-04-29T08:48:54;66144.25;;;0.00;nan
9091;BME280;4581;42.416;25.598;2023-04-29T08:51:23;66125.94;;;0.00;nan
9091;BME280;4581;42.416;25.598;2023-04-29T08:53:50;66138.13;;;0.00;nan
9091;BME280;4581;42.416;25.598;2023-04-29T08:56:17;66142.72;;;0.00;nan
9091;BME280;4581;42.416;25.598;2023-04-29T08:58:49;66141.19;;;0.00;nan
9091;BME280;4581;42.416;25.598;2023-04-29T09:01:21;66180.88;;;0.00;nan
9091;BME280;4581;42.416;25.598;2023-04-29T09:04:18;66191.53;;;0.00;nan
9091;BME280;4581;42.416;25.598;2023-04-29T09:06:46;66205.28;;;0.00;nan
9091;BME280;4581;42.416;25.598;2023-04-29T09:09:14;66147.28;;;0.00;nan
9091;BME280;4581;42.416;25.598;2023-04-29T09:11:41;66119.84;;;0.00;nan
9091;BME280;4581;42.416;25.598;2023-04-29T09:14:08;66118.31;;;0.00;nan
9091;BME280;4581;42.416;25.598;2023-04-29T09:16:34;66092.38;;;0.00;nan
9091;BME280;4581;42.416;25.598;2023-04-29T09:19:03;66089.31;;;0.00;nan
9091;BME280;4581;42.416;25.598;2023-04-29T09:21:30;66084.72;;;0.00;nan
9091;BME280;4581;42.416;25.598;2023-04-29T09:23:59;66098.47;;;0.00;nan
9091;BME280;4581;42.416;25.598;2023-04-29T09:26:35;66064.91;;;0.00;nan
9091;BME280;4581;42.416;25.598;2023-04-29T09:31:36;66049.63;;;0.00;nan
9091;BME280;4581;42.416;25.598;2023-04-29T09:34:03;66080.16;;;0.00;nan
9091;BME280;4581;42.416;25.598;2023-04-29T09:36:49;66089.31;;;0.00;nan
9091;BME280;4581;42.416;25.598;2023-04-29T09:39:20;66048.13;;;0.00;nan
9091;BME280;4581;42.416;25.598;2023-04-29T09:44:24;65988.59;;;0.00;nan
9091;BME280;4581;42.416;25.598;2023-04-29T09:47:00;66003.88;;;0.00;nan
9091;BME280;4581;42.416;25.598;2023-04-29T09:49:36;65979.44;;;0.00;nan
9091;BME280;4581;42.416;25.598;2023-04-29T09:52:06;65967.25;;;0.00;nan
9091;BME280;4581;42.416;25.598;2023-04-29T09:54:34;65985.56;;;0.00;nan
9091;BME280;4581;42.416;25.598;2023-04-29T09:57:02;66025.22;;;0.00;nan
9091;BME280;4581;42.416;25.598;2023-04-29T09:59:34;66013.03;;;0.00;nan
9091;BME280;4581;42.416;25.598;2023-04-29T10:02:06;65956.56;;;0.00;nan
9091;BME280;4581;42.416;25.598;2023-04-29T10:04:39;66005.38;;;0.00;nan
9091;BME280;4581;42.416;25.598;2023-04-29T10:07:07;66006.91;;;0.00;nan
9091;BME280;4581;42.416;25.598;2023-04-29T10:09:36;65982.50;;;0.00;nan
9091;BME280;4581;42.416;25.598;2023-04-29T10:12:06;65953.50;;;0.00;nan
9091;BME280;4581;42.416;25.598;2023-04-29T10:14:41;65961.13;;;0.00;nan
9091;BME280;4581;42.416;25.598;2023-04-29T10:17:29;65951.97;;;0.00;nan
9091;BME280;4581;42.416;25.598;2023-04-29T10:20:04;65955.03;;;0.00;nan
9091;BME280;4581;42.416;25.598;2023-04-29T10:22:47;65909.25;;;0.00;nan
9091;BME280;4581;42.416;25.598;2023-04-29T10:25:16;65938.25;;;0.00;nan
9091;BME280;4581;42.416;25.598;2023-04-29T10:27:44;65948.94;;;0.00;nan
9091;BME280;4581;42.416;25.598;2023-04-29T10:30:13;66002.34;;;0.00;nan
9091;BME280;4581;42.416;25.598;2023-04-29T10:32:46;65982.50;;;0.00;nan
9091;BME280;4581;42.416;25.598;2023-04-29T10:35:19;65967.25;;;0.00;nan
9091;BME280;4581;42.416;25.598;2023-04-29T10:37:48;65947.41;;;0.00;nan
9091;BME280;4581;42.416;25.598;2023-04-29T10:42:45;65880.25;;;0.00;nan
9091;BME280;4581;42.416;25.598;2023-04-29T10:45:29;65889.41;;;0.00;nan
9091;BME280;4581;42.416;25.598;2023-04-29T10:53:22;65858.91;;;0.00;nan
9091;BME280;4581;42.416;25.598;2023-04-29T10:55:53;65854.31;;;0.00;nan
9091;BME280;4581;42.416;25.598;2023-04-29T10:58:44;65874.16;;;0.00;nan
9091;BME280;4581;42.416;25.598;2023-04-29T11:01:13;65894.00;;;0.00;nan
9091;BME280;4581;42.416;25.598;2023-04-29T11:03:56;65887.91;;;0.00;nan
9091;BME280;4581;42.416;25.598;2023-04-29T11:09:14;65927.56;;;0.00;nan
9091;BME280;4581;42.416;25.598;2023-04-29T11:11:42;65874.16;;;0.00;nan
9091;BME280;4581;42.416;25.598;2023-04-29T11:14:10;65858.91;;;0.00;nan
9091;BME280;4581;42.416;25.598;2023-04-29T11:16:45;65828.38;;;0.00;nan
9091;BME280;4581;42.416;25.598;2023-04-29T11:19:14;65846.69;;;0.00;nan
9091;BME280;4581;42.416;25.598;2023-04-29T11:21:43;65819.22;;;0.00;nan
9091;BME280;4581;42.416;25.598;2023-04-29T11:24:10;65817.69;;;0.00;nan
9091;BME280;4581;42.416;25.598;2023-04-29T11:26:38;65814.66;;;0.00;nan
9091;BME280;4581;42.416;25.598;2023-04-29T11:29:06;65808.56;;;0.00;nan
9091;BME280;4581;42.416;25.598;2023-04-29T11:31:35;65796.34;;;0.00;nan
9091;BME280;4581;42.416;25.598;2023-04-29T11:34:04;65761.25;;;0.00;nan
9091;BME280;4581;42.416;25.598;2023-04-29T11:36:33;65718.53;;;0.00;nan
9091;BME280;4581;42.416;25.598;2023-04-29T11:39:01;65755.16;;;0.00;nan
9091;BME280;4581;42.416;25.598;2023-04-29T11:41:29;65756.66;;;0.00;nan
9091;BME280;4581;42.416;25.598;2023-04-29T11:43:58;65755.16;;;0.00;nan
9091;BME280;4581;42.416;25.598;2023-04-29T11:46:29;65779.56;;;0.00;nan
9091;BME280;4581;42.416;25.598;2023-04-29T11:48:57;65802.44;;;0.00;nan
9091;BME280;4581;42.416;25.598;2023-04-29T11:51:26;65796.34;;;0.00;nan
9091;BME280;4581;42.416;25.598;2023-04-29T11:53:55;65816.19;;;0.00;nan
9091;BME280;4581;42.416;25.598;2023-04-29T11:56:23;65831.44;;;0.00;nan
9091;BME280;4581;42.416;25.598;2023-04-29T11:58:54;65875.69;;;0.00;nan
9091;BME280;4581;42.416;25.598;2023-04-29T12:01:26;65863.47;;;0.00;nan
9091;BME280;4581;42.416;25.598;2023-04-29T12:03:57;65869.59;;;0.00;nan
9091;BME280;4581;42.416;25.598;2023-04-29T12:06:28;65854.31;;;0.00;nan
9091;BME280;4581;42.416;25.598;2023-04-29T12:08:58;65863.47;;;0.00;nan
9091;BME280;4581;42.416;25.598;2023-04-29T12:11:25;65921.47;;;0.00;nan
9091;BME280;4581;42.416;25.598;2023-04-29T12:13:52;65944.34;;;0.00;nan
9091;BME280;4581;42.416;25.598;2023-04-29T12:16:20;65912.31;;;0.00;nan
9091;BME280;4581;42.416;25.598;2023-04-29T12:18:52;65933.66;;;0.00;nan
9091;BME280;4581;42.416;25.598;2023-04-29T12:21:20;65930.63;;;0.00;nan
9091;BME280;4581;42.416;25.598;2023-04-29T12:23:47;65935.19;;;0.00;nan
9091;BME280;4581;42.416;25.598;2023-04-29T12:26:14;65933.66;;;0.00;nan
9091;BME280;4581;42.416;25.598;2023-04-29T12:28:41;65967.25;;;0.00;nan
9091;BME280;4581;42.416;25.598;2023-04-29T12:31:09;65973.34;;;0.00;nan
9091;BME280;4581;42.416;25.598;2023-04-29T12:33:41;65973.34;;;0.00;nan
9091;BME280;4581;42.416;25.598;2023-04-29T12:36:16;65970.28;;;0.00;nan
9091;BME280;4581;42.416;25.598;2023-04-29T12:38:46;65976.41;;;0.00;nan
9091;BME280;4581;42.416;25.598;2023-04-29T12:41:13;65973.34;;;0.00;nan
9091;BME280;4581;42.416;25.598;2023-04-29T12:43:43;65956.56;;;0.00;nan
9091;BME280;4581;42.416;25.598;2023-04-29T12:46:09;65965.72;;;0.00;nan
9091;BME280;4581;42.416;25.598;2023-04-29T12:48:40;65942.81;;;0.00;nan
9091;BME280;4581;42.416;25.598;2023-04-29T12:51:09;65909.25;;;0.00;nan
9091;BME280;4581;42.416;25.598;2023-04-29T12:53:37;65886.38;;;0.00;nan
9091;BME280;4581;42.416;25.598;2023-04-29T12:56:05;65890.94;;;0.00;nan
9091;BME280;4581;42.416;25.598;2023-04-29T12:58:32;65912.31;;;0.00;nan
9091;BME280;4581;42.416;25.598;2023-04-29T13:01:00;65964.19;;;0.00;nan
9091;BME280;4581;42.416;25.598;2023-04-29T13:03:27;65948.94;;;0.00;nan
9091;BME280;4581;42.416;25.598;2023-04-29T13:05:54;65930.63;;;0.00;nan
9091;BME280;4581;42.416;25.598;2023-04-29T13:08:21;65923.00;;;0.00;nan
9091;BME280;4581;42.416;25.598;2023-04-29T13:10:48;65942.81;;;0.00;nan
9091;BME280;4581;42.416;25.598;2023-04-29T13:13:15;65939.78;;;0.00;nan
9091;BME280;4581;42.416;25.598;2023-04-29T13:15:42;65921.47;;;0.00;nan
9091;BME280;4581;42.416;25.598;2023-04-29T13:18:08;65924.50;;;0.00;nan
9091;BME280;4581;42.416;25.598;2023-04-29T13:20:35;65903.16;;;0.00;nan
9091;BME280;4581;42.416;25.598;2023-04-29T13:23:07;65890.94;;;0.00;nan
9091;BME280;4581;42.416;25.598;2023-04-29T13:25:34;65883.31;;;0.00;nan
9091;BME280;4581;42.416;25.598;2023-04-29T13:28:01;65901.63;;;0.00;nan
9091;BME280;4581;42.416;25.598;2023-04-29T13:30:28;65884.84;;;0.00;nan
9091;BME280;4581;42.416;25.598;2023-04-29T13:32:55;65868.06;;;0.00;nan
9091;BME280;4581;42.416;25.598;2023-04-29T13:35:29;65884.84;;;0.00;nan
9091;BME280;4581;42.416;25.598;2023-04-29T13:37:56;65926.03;;;0.00;nan
9091;BME280;4581;42.416;25.598;2023-04-29T13:40:23;65900.09;;;0.00;nan
9091;BME280;4581;42.416;25.598;2023-04-29T13:42:53;65900.09;;;0.00;nan
9091;BME280;4581;42.416;25.598;2023-04-29T13:45:29;65923.00;;;0.00;nan
9091;BME280;4581;42.416;25.598;2023-04-29T13:47:57;65927.56;;;0.00;nan
9091;BME280;4581;42.416;25.598;2023-04-29T13:50:37;65955.03;;;0.00;nan
9091;BME280;4581;42.416;25.598;2023-04-29T13:53:09;65948.94;;;0.00;nan
9091;BME280;4581;42.416;25.598;2023-04-29T13:55:56;65918.41;;;0.00;nan
9091;BME280;4581;42.416;25.598;2023-04-29T13:58:25;65926.03;;;0.00;nan
9091;BME280;4581;42.416;25.598;2023-04-29T14:00:55;65901.63;;;0.00;nan
9091;BME280;4581;42.416;25.598;2023-04-29T14:03:25;65909.25;;;0.00;nan
9091;BME280;4581;42.416;25.598;2023-04-29T14:05:51;65927.56;;;0.00;nan
9091;BME280;4581;42.416;25.598;2023-04-29T14:08:18;65950.47;;;0.00;nan
9091;BME280;4581;42.416;25.598;2023-04-29T14:10:45;65938.25;;;0.00;nan
9091;BME280;4581;42.416;25.598;2023-04-29T14:13:12;65941.31;;;0.00;nan
9091;BME280;4581;42.416;25.598;2023-04-29T14:15:38;65927.56;;;0.00;nan